createdAt,value
2022-11-18T00:01:09.549Z,8.11
2022-11-18T00:03:37.591Z,7.93
2022-11-18T00:06:06.411Z,7.92
2022-11-18T00:08:34.753Z,8.02
2022-11-18T00:11:06.971Z,8.07
2022-11-18T00:13:54.260Z,7.85
2022-11-18T00:16:22.080Z,7.98
2022-11-18T00:18:49.986Z,7.90
2022-11-18T00:21:17.855Z,7.85
2022-11-18T00:23:45.684Z,7.83
2022-11-18T00:26:15.133Z,7.72
2022-11-18T00:28:44.290Z,7.81
2022-11-18T00:31:13.883Z,7.73
2022-11-18T00:33:42.081Z,7.50
2022-11-18T00:36:13.093Z,7.41
2022-11-18T00:38:41.553Z,6.95
2022-11-18T00:41:12.258Z,7.05
2022-11-18T00:43:39.409Z,7.07
2022-11-18T00:46:10.593Z,6.81
2022-11-18T00:48:39.122Z,6.83
2022-11-18T00:51:12.759Z,6.90
2022-11-18T00:53:40.606Z,6.82
2022-11-18T00:56:08.960Z,6.95
2022-11-18T00:58:37.075Z,6.91
2022-11-18T01:01:05.788Z,6.74
2022-11-18T01:03:35.054Z,6.68
2022-11-18T01:06:02.910Z,6.47
2022-11-18T01:08:30.852Z,6.52
2022-11-18T01:11:19.624Z,6.50
2022-11-18T01:13:49.861Z,6.48
2022-11-18T01:16:20.259Z,6.55
2022-11-18T01:18:49.761Z,6.21
2022-11-18T01:21:18.267Z,6.53
2022-11-18T01:23:46.249Z,6.60
2022-11-18T01:26:16.248Z,6.54
2022-11-18T01:28:44.513Z,6.43
2022-11-18T01:31:14.596Z,6.47
2022-11-18T01:33:43.245Z,6.39
2022-11-18T01:36:21.182Z,6.04
2022-11-18T01:38:49.734Z,6.25
2022-11-18T01:41:18.440Z,5.85
2022-11-18T01:43:52.395Z,6.28
2022-11-18T01:46:21.033Z,6.18
2022-11-18T01:48:51.738Z,6.55
2022-11-18T01:51:26.593Z,6.46
2022-11-18T01:54:01.042Z,6.58
2022-11-18T01:56:34.229Z,6.58
2022-11-18T01:59:07.468Z,6.67
2022-11-18T02:01:35.455Z,6.75
2022-11-18T02:04:03.410Z,6.61
2022-11-18T02:06:33.288Z,5.85
2022-11-18T02:09:02.723Z,6.77
2022-11-18T02:11:49.455Z,6.82
2022-11-18T02:14:18.475Z,6.74
2022-11-18T02:17:01.812Z,6.83
2022-11-18T02:19:48.569Z,6.66
2022-11-18T02:22:36.916Z,6.96
2022-11-18T02:25:09.398Z,6.75
2022-11-18T02:28:17.160Z,6.76
2022-11-18T02:30:51.337Z,6.76
2022-11-18T02:33:26.006Z,6.94
2022-11-18T02:35:59.749Z,6.88
2022-11-18T02:38:32.401Z,6.89
2022-11-18T02:41:04.985Z,6.90
2022-11-18T02:43:37.920Z,6.74
2022-11-18T02:46:11.074Z,6.87
2022-11-18T02:48:43.817Z,6.99
2022-11-18T02:51:13.747Z,7.06
2022-11-18T02:53:43.340Z,7.12
2022-11-18T02:56:11.771Z,6.99
2022-11-18T02:58:39.645Z,6.99
2022-11-18T03:01:16.540Z,6.94
2022-11-18T03:03:44.501Z,7.01
2022-11-18T03:06:22.969Z,7.04
2022-11-18T03:08:56.085Z,7.01
2022-11-18T03:11:25.999Z,7.11
2022-11-18T03:14:10.904Z,7.14
2022-11-18T03:16:46.724Z,6.99
2022-11-18T03:19:21.297Z,7.08
2022-11-18T03:22:00.173Z,7.22
2022-11-18T03:24:33.167Z,7.24
2022-11-18T03:27:11.999Z,7.24
2022-11-18T03:29:46.300Z,7.17
2022-11-18T03:32:20.161Z,6.94
2022-11-18T03:34:52.048Z,7.25
2022-11-18T03:37:22.074Z,7.27
2022-11-18T03:39:55.161Z,7.25
2022-11-18T03:42:29.818Z,7.24
2022-11-18T03:45:02.558Z,7.27
2022-11-18T03:47:36.386Z,7.23
2022-11-18T03:50:10.095Z,6.98
2022-11-18T03:52:38.804Z,7.02
2022-11-18T03:55:12.431Z,7.22
2022-11-18T03:57:45.464Z,7.09
2022-11-18T04:00:16.520Z,6.59
2022-11-18T04:02:48.922Z,6.86
2022-11-18T04:05:18.672Z,7.03
2022-11-18T04:07:55.160Z,6.51
2022-11-18T04:10:28.356Z,6.75
2022-11-18T04:13:06.357Z,6.92
2022-11-18T04:15:37.891Z,6.96
2022-11-18T04:18:07.227Z,6.96
2022-11-18T04:20:35.429Z,6.80
2022-11-18T04:23:03.265Z,6.85
2022-11-18T04:25:31.197Z,6.81
2022-11-18T04:27:59.147Z,6.76
2022-11-18T04:30:27.065Z,6.58
2022-11-18T04:32:54.965Z,6.57
2022-11-18T04:35:24.185Z,6.58
2022-11-18T04:37:52.157Z,6.53
2022-11-18T04:40:20.256Z,6.65
2022-11-18T04:42:48.504Z,5.67
2022-11-18T04:45:16.396Z,6.54
2022-11-18T04:47:44.226Z,6.63
2022-11-18T04:50:12.130Z,6.70
2022-11-18T04:52:41.324Z,6.72
2022-11-18T04:55:09.669Z,6.74
2022-11-18T04:57:37.550Z,6.70
2022-11-18T05:00:06.724Z,6.64
2022-11-18T05:02:34.584Z,6.67
2022-11-18T05:05:02.415Z,6.81
2022-11-18T05:07:30.298Z,6.83
2022-11-18T05:09:59.542Z,6.85
2022-11-18T05:12:45.009Z,6.88
2022-11-18T05:15:12.893Z,6.92
2022-11-18T05:17:40.702Z,6.98
2022-11-18T05:20:09.324Z,6.95
2022-11-18T05:22:37.220Z,6.98
2022-11-18T05:25:07.526Z,6.94
2022-11-18T05:27:35.635Z,6.67
2022-11-18T05:30:03.492Z,7.08
2022-11-18T05:32:31.313Z,7.08
2022-11-18T05:34:59.188Z,6.86
2022-11-18T05:37:27.071Z,7.18
2022-11-18T05:39:54.868Z,7.15
2022-11-18T05:42:41.432Z,7.24
2022-11-18T05:45:09.870Z,6.89
2022-11-18T05:47:58.781Z,6.86
2022-11-18T05:50:26.664Z,7.05
2022-11-18T05:52:54.499Z,7.08
2022-11-18T05:55:26.041Z,7.11
2022-11-18T05:57:55.276Z,6.99
2022-11-18T06:00:23.289Z,7.35
2022-11-18T06:02:52.963Z,7.03
2022-11-18T06:05:24.287Z,6.88
2022-11-18T06:07:52.232Z,7.28
2022-11-18T06:10:23.906Z,7.42
2022-11-18T06:12:57.621Z,6.74
2022-11-18T06:15:29.102Z,7.07
2022-11-18T06:18:00.889Z,7.20
2022-11-18T06:20:29.547Z,7.33
2022-11-18T06:22:59.273Z,7.39
2022-11-18T06:25:27.246Z,7.56
2022-11-18T06:28:00.338Z,7.63
2022-11-18T06:30:29.733Z,7.24
2022-11-18T06:32:57.595Z,7.75
2022-11-18T06:35:25.533Z,7.23
2022-11-18T06:37:53.381Z,7.63
2022-11-18T06:40:21.324Z,7.52
2022-11-18T06:43:06.693Z,7.58
2022-11-18T06:45:36.097Z,7.75
2022-11-18T06:48:04.249Z,7.88
2022-11-18T06:50:32.376Z,7.69
2022-11-18T06:53:01.566Z,7.89
2022-11-18T06:55:29.485Z,7.97
2022-11-18T06:57:57.789Z,7.44
2022-11-18T07:00:25.732Z,7.42
2022-11-18T07:02:54.944Z,7.88
2022-11-18T07:05:22.795Z,7.87
2022-11-18T07:07:50.721Z,7.75
2022-11-18T07:10:18.807Z,7.98
2022-11-18T07:12:46.819Z,7.78
2022-11-18T07:15:14.706Z,8.09
2022-11-18T07:17:42.527Z,8.16
2022-11-18T07:20:12.673Z,8.07
2022-11-18T07:22:40.576Z,8.14
2022-11-18T07:25:08.902Z,8.35
2022-11-18T07:27:36.750Z,8.41
2022-11-18T07:30:05.299Z,8.50
2022-11-18T07:32:34.279Z,8.58
2022-11-18T07:35:02.127Z,8.13
2022-11-18T07:37:31.338Z,8.35
2022-11-18T07:40:00.061Z,8.23
2022-11-18T07:42:28.157Z,8.35
2022-11-18T07:44:55.989Z,8.44
2022-11-18T07:47:23.853Z,8.43
2022-11-18T07:49:51.705Z,8.60
2022-11-18T07:52:19.549Z,8.73
2022-11-18T07:54:48.721Z,8.83
2022-11-18T07:57:16.617Z,8.87
2022-11-18T07:59:44.534Z,8.37
2022-11-18T08:02:12.834Z,8.32
2022-11-18T08:04:40.769Z,8.34
2022-11-18T08:07:10.689Z,8.58
2022-11-18T08:09:40.126Z,8.67
2022-11-18T08:12:09.738Z,8.68
2022-11-18T08:14:37.586Z,8.70
2022-11-18T08:17:05.459Z,8.47
2022-11-18T08:19:35.427Z,8.66
2022-11-18T08:22:03.302Z,8.76
2022-11-18T08:24:31.157Z,8.80
2022-11-18T08:26:59.618Z,8.71
2022-11-18T08:29:29.312Z,8.69
2022-11-18T08:31:57.494Z,8.82
2022-11-18T08:34:25.357Z,8.95
2022-11-18T08:36:53.211Z,9.02
2022-11-18T08:39:21.187Z,8.97
2022-11-18T08:41:49.084Z,9.12
2022-11-18T08:44:18.069Z,9.16
2022-11-18T08:46:47.309Z,9.80
2022-11-18T08:49:15.708Z,9.90
2022-11-18T08:51:44.173Z,10.06
2022-11-18T08:54:12.011Z,10.08
2022-11-18T08:56:40.263Z,9.69
2022-11-18T08:59:08.999Z,9.62
2022-11-18T09:01:37.984Z,9.74
2022-11-18T09:04:07.522Z,9.82
2022-11-18T09:06:35.806Z,9.32
2022-11-18T09:09:06.461Z,9.40
2022-11-18T09:11:46.205Z,9.38
2022-11-18T09:15:11.923Z,9.35
2022-11-18T09:17:02.187Z,9.25
2022-11-18T09:19:46.881Z,9.22
2022-11-18T09:22:15.902Z,9.25
2022-11-18T09:24:44.996Z,9.09
2022-11-18T09:27:16.932Z,9.01
2022-11-18T09:29:45.693Z,8.92
2022-11-18T09:32:13.777Z,8.99
2022-11-18T09:34:43.027Z,9.09
2022-11-18T09:37:11.033Z,9.09
2022-11-18T09:39:38.976Z,9.14
2022-11-18T09:42:28.399Z,9.09
2022-11-18T09:45:12.934Z,9.14
2022-11-18T09:47:42.204Z,8.74
2022-11-18T09:50:47.354Z,8.94
2022-11-18T09:53:14.318Z,8.93
2022-11-18T09:55:43.553Z,9.05
2022-11-18T09:58:18.337Z,9.42
2022-11-18T10:00:46.754Z,9.70
2022-11-18T10:03:28.144Z,9.64
2022-11-18T10:06:04.961Z,9.91
2022-11-18T10:08:37.768Z,10.43
2022-11-18T10:11:13.678Z,10.71
2022-11-18T10:13:56.452Z,10.56
2022-11-18T10:16:33.183Z,10.91
2022-11-18T10:19:12.351Z,11.62
2022-11-18T10:21:52.443Z,11.69
2022-11-18T10:24:22.353Z,12.06
2022-11-18T10:26:56.566Z,12.27
2022-11-18T10:29:25.021Z,12.62
2022-11-18T10:32:03.797Z,12.78
2022-11-18T10:34:32.975Z,12.37
2022-11-18T10:37:04.238Z,12.80
2022-11-18T10:39:32.283Z,12.95
2022-11-18T10:42:04.314Z,13.23
2022-11-18T10:44:38.415Z,13.75
2022-11-18T10:47:28.436Z,14.57
2022-11-18T10:49:58.186Z,15.04
2022-11-18T10:52:29.627Z,15.16
2022-11-18T10:55:24.917Z,14.72
2022-11-18T10:57:57.290Z,14.38
2022-11-18T11:00:43.775Z,14.61
2022-11-18T11:03:30.507Z,14.85
2022-11-18T11:06:25.225Z,15.11
2022-11-18T11:08:56.223Z,14.65
2022-11-18T11:11:28.604Z,14.23
2022-11-18T11:14:04.570Z,14.20
2022-11-18T11:16:37.341Z,14.30
2022-11-18T11:19:07.967Z,14.51
2022-11-18T11:21:35.810Z,14.46
2022-11-18T11:24:12.474Z,14.41
2022-11-18T11:30:03.868Z,14.43
2022-11-18T11:32:41.130Z,14.75
2022-11-18T11:35:16.245Z,14.91
2022-11-18T11:37:55.032Z,15.00
2022-11-18T11:40:33.715Z,14.73
2022-11-18T11:43:28.886Z,14.55
2022-11-18T11:46:13.618Z,14.63
2022-11-18T11:48:54.587Z,14.63
2022-11-18T11:51:32.190Z,14.59
2022-11-18T11:54:22.102Z,14.32
2022-11-18T11:56:56.468Z,14.24
2022-11-18T11:59:31.212Z,13.98
2022-11-18T12:02:16.081Z,14.32
2022-11-18T12:04:47.746Z,13.62
2022-11-18T12:07:19.617Z,13.87
2022-11-18T12:10:03.864Z,13.78
2022-11-18T12:12:38.520Z,14.09
2022-11-18T12:15:17.639Z,14.00
2022-11-18T12:17:54.181Z,14.05
2022-11-18T12:20:43.209Z,14.29
2022-11-18T12:23:14.025Z,14.35
2022-11-18T12:25:57.083Z,14.32
2022-11-18T12:28:32.546Z,14.30
2022-11-18T12:31:33.560Z,14.41
2022-11-18T12:34:05.283Z,14.55
2022-11-18T12:36:35.195Z,14.77
2022-11-18T12:39:36.504Z,14.51
2022-11-18T12:42:23.169Z,14.64
2022-11-18T12:44:54.438Z,14.73
2022-11-18T12:48:00.880Z,14.60
2022-11-18T12:50:50.210Z,14.59
2022-11-18T12:53:34.230Z,14.58
2022-11-18T12:56:02.085Z,14.65
2022-11-18T12:58:29.919Z,14.48
2022-11-18T13:01:12.670Z,14.06
2022-11-18T13:03:40.801Z,14.63
2022-11-18T13:06:20.284Z,14.66
2022-11-18T13:08:53.543Z,14.80
2022-11-18T13:11:40.167Z,14.74
2022-11-18T13:14:32.941Z,14.63
2022-11-18T13:17:19.648Z,14.62
2022-11-18T13:19:57.153Z,15.09
2022-11-18T13:22:44.982Z,15.17
2022-11-18T13:25:26.299Z,15.68
2022-11-18T13:28:01.985Z,15.64
2022-11-18T13:30:31.811Z,16.19
2022-11-18T13:33:01.364Z,16.04
2022-11-18T13:35:29.920Z,15.81
2022-11-18T13:37:59.358Z,15.55
2022-11-18T13:40:29.455Z,15.54
2022-11-18T13:42:57.574Z,15.33
2022-11-18T13:45:28.689Z,15.30
2022-11-18T13:48:02.929Z,15.27
2022-11-18T13:50:34.519Z,15.25
2022-11-18T13:53:14.034Z,15.19
2022-11-18T13:55:47.990Z,15.24
2022-11-18T13:58:40.129Z,15.13
2022-11-18T14:01:20.836Z,14.89
2022-11-18T14:03:53.193Z,15.23
2022-11-18T14:06:29.402Z,15.07
2022-11-18T14:09:08.708Z,14.95
2022-11-18T14:11:38.090Z,15.02
2022-11-18T14:14:06.567Z,15.06
2022-11-18T14:16:36.951Z,15.12
2022-11-18T14:19:07.145Z,14.93
2022-11-18T14:21:38.289Z,15.22
2022-11-18T14:24:07.151Z,15.13
2022-11-18T14:26:36.999Z,14.88
2022-11-18T14:29:20.997Z,14.74
2022-11-18T14:32:05.390Z,14.93
2022-11-18T14:34:34.736Z,15.09
2022-11-18T14:37:03.601Z,15.16
2022-11-18T14:39:33.606Z,15.07
2022-11-18T14:42:01.858Z,14.88
2022-11-18T14:44:30.663Z,14.92
2022-11-18T14:47:00.178Z,14.88
2022-11-18T14:49:30.823Z,14.90
2022-11-18T14:52:02.533Z,14.82
2022-11-18T14:54:31.151Z,14.87
2022-11-18T14:57:02.695Z,14.69
2022-11-18T14:59:30.933Z,14.89
2022-11-18T15:01:59.675Z,15.00
2022-11-18T15:04:27.805Z,15.07
2022-11-18T15:06:56.163Z,15.16
2022-11-18T15:09:25.478Z,15.21
2022-11-18T15:11:53.298Z,15.90
2022-11-18T15:14:21.784Z,16.46
2022-11-18T15:16:49.711Z,16.64
2022-11-18T15:19:17.815Z,16.72
2022-11-18T15:21:46.375Z,16.45
2022-11-18T15:24:14.401Z,16.67
2022-11-18T15:26:46.062Z,16.51
2022-11-18T15:29:18.445Z,16.74
2022-11-18T15:31:46.484Z,16.98
2022-11-18T15:34:14.674Z,16.93
2022-11-18T15:36:42.621Z,16.80
2022-11-18T15:39:11.423Z,16.68
2022-11-18T15:41:41.245Z,16.65
2022-11-18T15:44:12.131Z,16.58
2022-11-18T15:46:40.527Z,16.48
2022-11-18T15:49:13.097Z,16.36
2022-11-18T15:51:41.074Z,16.47
2022-11-18T15:54:08.949Z,16.42
2022-11-18T15:56:37.370Z,16.45
2022-11-18T15:59:07.176Z,16.48
2022-11-18T16:01:37.727Z,16.50
2022-11-18T16:04:07.523Z,16.36
2022-11-18T16:06:35.528Z,16.30
2022-11-18T16:09:04.067Z,16.37
2022-11-18T16:11:49.439Z,16.66
2022-11-18T16:14:20.026Z,16.10
2022-11-18T16:16:50.852Z,16.58
2022-11-18T16:19:20.475Z,16.30
2022-11-18T16:21:50.986Z,16.14
2022-11-18T16:24:21.852Z,16.41
2022-11-18T16:26:50.725Z,16.37
2022-11-18T16:29:19.478Z,16.29
2022-11-18T16:31:52.119Z,15.94
2022-11-18T16:34:22.199Z,15.87
2022-11-18T16:36:52.121Z,15.65
2022-11-18T16:39:23.710Z,15.37
2022-11-18T16:41:52.643Z,15.06
2022-11-18T16:44:20.877Z,15.16
2022-11-18T16:46:52.143Z,14.99
2022-11-18T16:49:22.539Z,14.60
2022-11-18T16:51:52.232Z,14.82
2022-11-18T16:54:22.849Z,13.67
2022-11-18T16:56:51.682Z,14.47
2022-11-18T16:59:21.789Z,14.45
2022-11-18T17:01:52.078Z,14.43
2022-11-18T17:04:21.419Z,14.31
2022-11-18T17:06:49.436Z,14.25
2022-11-18T17:09:19.404Z,14.20
2022-11-18T17:11:48.239Z,13.89
2022-11-18T17:14:16.159Z,14.11
2022-11-18T17:16:43.990Z,14.02
2022-11-18T17:19:15.801Z,13.83
2022-11-18T17:21:44.042Z,13.74
2022-11-18T17:24:13.971Z,13.76
2022-11-18T17:26:42.156Z,13.73
2022-11-18T17:29:11.334Z,13.78
2022-11-18T17:31:39.667Z,13.63
2022-11-18T17:34:10.637Z,13.54
2022-11-18T17:36:40.432Z,13.50
2022-11-18T17:39:10.872Z,13.46
2022-11-18T17:42:02.114Z,13.50
2022-11-18T17:44:30.106Z,13.40
2022-11-18T17:46:57.931Z,13.53
2022-11-18T17:49:26.115Z,13.56
2022-11-18T17:51:55.861Z,13.51
2022-11-18T17:54:24.168Z,13.31
2022-11-18T17:56:52.982Z,13.21
2022-11-18T17:59:21.266Z,13.14
2022-11-18T18:01:54.149Z,12.91
2022-11-18T18:04:25.389Z,12.97
2022-11-18T18:06:55.511Z,13.17
2022-11-18T18:09:30.047Z,13.24
2022-11-18T18:11:59.776Z,12.77
2022-11-18T18:14:26.741Z,12.96
2022-11-18T18:16:55.142Z,12.42
2022-11-18T18:19:24.537Z,12.73
2022-11-18T18:21:53.263Z,12.60
2022-11-18T18:24:23.197Z,12.53
2022-11-18T18:26:51.405Z,12.50
2022-11-18T18:29:19.287Z,12.72
2022-11-18T18:31:47.251Z,12.74
2022-11-18T18:34:15.097Z,12.83
2022-11-18T18:36:43.013Z,12.85
2022-11-18T18:39:11.114Z,12.76
2022-11-18T18:41:40.414Z,12.83
2022-11-18T18:44:10.452Z,12.63
2022-11-18T18:46:40.760Z,12.64
2022-11-18T18:49:11.026Z,12.80
2022-11-18T18:51:40.272Z,12.90
2022-11-18T18:54:08.846Z,13.02
2022-11-18T18:56:36.731Z,13.07
2022-11-18T18:59:06.334Z,12.89
2022-11-18T19:01:34.585Z,13.30
2022-11-18T19:04:05.040Z,13.61
2022-11-18T19:06:58.257Z,13.82
2022-11-18T19:09:27.315Z,13.62
2022-11-18T19:12:12.999Z,13.78
2022-11-18T19:14:42.292Z,13.93
2022-11-18T19:17:12.056Z,13.89
2022-11-18T19:19:59.044Z,13.86
2022-11-18T19:22:29.221Z,13.91
2022-11-18T19:24:57.280Z,13.86
2022-11-18T19:27:25.411Z,13.00
2022-11-18T19:29:54.647Z,13.70
2022-11-18T19:32:23.275Z,13.63
2022-11-18T19:34:51.163Z,13.74
2022-11-18T19:37:19.138Z,13.70
2022-11-18T19:39:47.087Z,13.35
2022-11-18T19:42:14.955Z,13.47
2022-11-18T19:44:42.856Z,13.56
2022-11-18T19:47:12.076Z,13.96
2022-11-18T19:49:40.076Z,13.97
2022-11-18T19:52:07.974Z,13.93
2022-11-18T19:54:35.801Z,13.92
2022-11-18T19:57:04.136Z,13.58
2022-11-18T19:59:32.168Z,13.87
2022-11-18T20:02:00.003Z,13.98
2022-11-18T20:04:29.436Z,13.97
2022-11-18T20:06:57.948Z,13.97
2022-11-18T20:09:26.497Z,13.98
2022-11-18T20:11:55.539Z,13.96
2022-11-18T20:14:23.501Z,13.87
2022-11-18T20:16:52.613Z,13.57
2022-11-18T20:19:20.799Z,13.94
2022-11-18T20:21:50.469Z,13.88
2022-11-18T20:24:19.708Z,13.82
2022-11-18T20:26:48.663Z,13.64
2022-11-18T20:29:16.884Z,13.62
2022-11-18T20:31:45.253Z,13.21
2022-11-18T20:34:14.977Z,13.58
2022-11-18T20:36:43.329Z,13.39
2022-11-18T20:39:15.883Z,13.43
2022-11-18T20:42:04.404Z,13.49
2022-11-18T20:44:32.325Z,13.43
2022-11-18T20:47:00.688Z,13.37
2022-11-18T20:49:28.685Z,13.32
2022-11-18T20:51:56.679Z,12.29
2022-11-18T20:54:25.962Z,13.23
2022-11-18T20:56:53.783Z,13.16
2022-11-18T20:59:21.653Z,13.11
2022-11-18T21:01:49.565Z,13.06
2022-11-18T21:04:17.620Z,13.01
2022-11-18T21:06:45.545Z,12.52
2022-11-18T21:09:14.353Z,12.94
2022-11-18T21:11:43.562Z,12.96
2022-11-18T21:14:24.610Z,12.12
2022-11-18T21:16:54.104Z,12.86
2022-11-18T21:19:22.441Z,12.58
2022-11-18T21:21:52.469Z,12.81
2022-11-18T21:24:22.965Z,12.70
2022-11-18T21:26:54.700Z,12.72
2022-11-18T21:29:23.906Z,12.57
2022-11-18T21:31:52.796Z,12.64
2022-11-18T21:34:21.695Z,12.40
2022-11-18T21:36:54.227Z,12.67
2022-11-18T21:39:22.894Z,12.66
2022-11-18T21:41:57.827Z,12.70
2022-11-18T21:44:28.099Z,12.41
2022-11-18T21:46:56.357Z,12.61
2022-11-18T21:49:24.156Z,12.86
2022-11-18T21:51:52.063Z,12.93
2022-11-18T21:54:20.068Z,12.81
2022-11-18T21:56:47.911Z,13.02
2022-11-18T21:59:17.661Z,12.81
2022-11-18T22:01:45.694Z,12.96
2022-11-18T22:04:33.786Z,12.96
2022-11-18T22:07:01.722Z,12.51
2022-11-18T22:09:35.782Z,12.19
2022-11-18T22:12:04.943Z,12.23
2022-11-18T22:14:34.560Z,12.20
2022-11-18T22:17:02.433Z,12.08
2022-11-18T22:19:30.655Z,12.05
2022-11-18T22:21:58.683Z,12.11
2022-11-18T22:24:26.780Z,12.09
2022-11-18T22:26:54.652Z,12.28
2022-11-18T22:29:24.154Z,12.37
2022-11-18T22:31:53.698Z,12.36
2022-11-18T22:34:21.580Z,12.37
2022-11-18T22:36:49.412Z,12.42
2022-11-18T22:39:17.705Z,12.33
2022-11-18T22:42:02.932Z,12.41
2022-11-18T22:44:30.758Z,12.42
2022-11-18T22:46:59.994Z,12.17
2022-11-18T22:49:27.814Z,11.83
2022-11-18T22:51:55.629Z,11.75
2022-11-18T22:54:38.447Z,11.79
2022-11-18T22:57:07.466Z,11.74
2022-11-18T22:59:35.473Z,11.73
2022-11-18T23:02:04.853Z,11.70
2022-11-18T23:04:32.740Z,11.66
2022-11-18T23:07:00.770Z,11.62
2022-11-18T23:09:29.072Z,11.54
2022-11-18T23:12:14.517Z,11.49
2022-11-18T23:14:42.352Z,11.50
2022-11-18T23:17:11.557Z,11.49
2022-11-18T23:19:43.801Z,11.49
2022-11-18T23:22:12.186Z,11.51
2022-11-18T23:24:40.212Z,11.52
2022-11-18T23:27:08.169Z,11.56
2022-11-18T23:29:36.076Z,11.64
2022-11-18T23:32:04.582Z,11.73
2022-11-18T23:34:33.862Z,11.74
2022-11-18T23:37:01.681Z,11.66
2022-11-18T23:39:29.642Z,11.62
2022-11-18T23:41:57.505Z,11.51
2022-11-18T23:44:45.178Z,11.46
2022-11-18T23:47:13.186Z,11.42
2022-11-18T23:49:42.572Z,11.42
2022-11-18T23:52:10.715Z,11.44
2022-11-18T23:54:38.514Z,11.43
2022-11-18T23:57:06.359Z,11.40
2022-11-18T23:59:34.363Z,11.38
